sensor_id;sensor_type;location;lat;lon;timestamp;temperature;humidity
3954;DHT22;1991;48.682;9.030;2023-02-28T00:00:05;-2.50;80.90
3954;DHT22;1991;48.682;9.030;2023-02-28T00:02:41;-2.40;81.00
3954;DHT22;1991;48.682;9.030;2023-02-28T00:05:09;-2.50;81.50
3954;DHT22;1991;48.682;9.030;2023-02-28T00:07:35;-2.50;83.10
3954;DHT22;1991;48.682;9.030;2023-02-28T00:10:02;-2.50;81.80
3954;DHT22;1991;48.682;9.030;2023-02-28T00:12:27;-2.60;81.90
3954;DHT22;1991;48.682;9.030;2023-02-28T00:14:53;-2.60;82.40
3954;DHT22;1991;48.682;9.030;2023-02-28T00:17:19;-2.70;83.20
3954;DHT22;1991;48.682;9.030;2023-02-28T00:19:50;-2.70;83.70
3954;DHT22;1991;48.682;9.030;2023-02-28T00:22:18;-2.70;84.60
3954;DHT22;1991;48.682;9.030;2023-02-28T00:24:44;-2.60;84.40
3954;DHT22;1991;48.682;9.030;2023-02-28T00:27:10;-2.70;84.30
3954;DHT22;1991;48.682;9.030;2023-02-28T00:29:36;-2.60;84.30
3954;DHT22;1991;48.682;9.030;2023-02-28T00:32:02;-2.50;85.10
3954;DHT22;1991;48.682;9.030;2023-02-28T00:34:28;-2.60;84.90
3954;DHT22;1991;48.682;9.030;2023-02-28T00:36:54;-2.70;85.70
3954;DHT22;1991;48.682;9.030;2023-02-28T00:39:20;-2.70;86.50
3954;DHT22;1991;48.682;9.030;2023-02-28T00:41:46;-2.80;86.50
3954;DHT22;1991;48.682;9.030;2023-02-28T00:44:12;-2.90;87.60
3954;DHT22;1991;48.682;9.030;2023-02-28T00:46:38;-2.90;87.60
3954;DHT22;1991;48.682;9.030;2023-02-28T00:49:03;-3.00;89.00
3954;DHT22;1991;48.682;9.030;2023-02-28T00:51:29;-3.00;89.20
3954;DHT22;1991;48.682;9.030;2023-02-28T00:53:54;-3.00;89.70
3954;DHT22;1991;48.682;9.030;2023-02-28T00:56:20;-3.10;90.20
3954;DHT22;1991;48.682;9.030;2023-02-28T00:58:46;-3.10;90.30
3954;DHT22;1991;48.682;9.030;2023-02-28T01:01:11;-3.20;90.80
3954;DHT22;1991;48.682;9.030;2023-02-28T01:03:37;-3.20;90.90
3954;DHT22;1991;48.682;9.030;2023-02-28T01:06:04;-3.20;91.30
3954;DHT22;1991;48.682;9.030;2023-02-28T01:08:29;-3.30;91.40
3954;DHT22;1991;48.682;9.030;2023-02-28T01:10:55;-3.30;91.90
3954;DHT22;1991;48.682;9.030;2023-02-28T01:13:21;-3.20;91.90
3954;DHT22;1991;48.682;9.030;2023-02-28T01:15:50;-3.20;92.10
3954;DHT22;1991;48.682;9.030;2023-02-28T01:18:17;-3.20;92.30
3954;DHT22;1991;48.682;9.030;2023-02-28T01:20:42;-3.20;92.60
3954;DHT22;1991;48.682;9.030;2023-02-28T01:23:08;-3.20;92.90
3954;DHT22;1991;48.682;9.030;2023-02-28T01:25:35;-3.20;93.00
3954;DHT22;1991;48.682;9.030;2023-02-28T01:28:01;-3.20;93.60
3954;DHT22;1991;48.682;9.030;2023-02-28T01:30:27;-3.20;93.90
3954;DHT22;1991;48.682;9.030;2023-02-28T01:32:53;-3.30;94.30
3954;DHT22;1991;48.682;9.030;2023-02-28T01:35:19;-3.30;94.60
3954;DHT22;1991;48.682;9.030;2023-02-28T01:37:45;-3.20;94.90
3954;DHT22;1991;48.682;9.030;2023-02-28T01:40:11;-3.30;95.20
3954;DHT22;1991;48.682;9.030;2023-02-28T01:42:37;-3.30;95.60
3954;DHT22;1991;48.682;9.030;2023-02-28T01:45:28;-3.30;96.00
3954;DHT22;1991;48.682;9.030;2023-02-28T01:47:58;-3.20;96.40
3954;DHT22;1991;48.682;9.030;2023-02-28T01:50:28;-3.30;96.60
3954;DHT22;1991;48.682;9.030;2023-02-28T01:52:57;-3.30;97.00
3954;DHT22;1991;48.682;9.030;2023-02-28T01:55:25;-3.30;97.20
3954;DHT22;1991;48.682;9.030;2023-02-28T01:57:55;-3.30;97.50
3954;DHT22;1991;48.682;9.030;2023-02-28T02:00:24;-3.20;98.20
3954;DHT22;1991;48.682;9.030;2023-02-28T02:02:55;-3.20;98.30
3954;DHT22;1991;48.682;9.030;2023-02-28T02:05:28;-3.30;98.60
3954;DHT22;1991;48.682;9.030;2023-02-28T02:08:00;-3.30;99.00
3954;DHT22;1991;48.682;9.030;2023-02-28T02:10:36;-3.30;99.60
3954;DHT22;1991;48.682;9.030;2023-02-28T02:18:44;-3.30;99.90
3954;DHT22;1991;48.682;9.030;2023-02-28T02:21:24;-3.30;99.90
3954;DHT22;1991;48.682;9.030;2023-02-28T02:30:08;-3.30;99.90
3954;DHT22;1991;48.682;9.030;2023-02-28T02:35:11;-3.20;99.90
3954;DHT22;1991;48.682;9.030;2023-02-28T02:37:47;-3.20;99.90
3954;DHT22;1991;48.682;9.030;2023-02-28T02:40:20;-3.20;99.90
3954;DHT22;1991;48.682;9.030;2023-02-28T02:43:14;-3.20;99.90
3954;DHT22;1991;48.682;9.030;2023-02-28T02:45:48;-3.20;99.90
3954;DHT22;1991;48.682;9.030;2023-02-28T02:48:20;-3.20;99.90
3954;DHT22;1991;48.682;9.030;2023-02-28T02:50:50;-3.10;99.90
3954;DHT22;1991;48.682;9.030;2023-02-28T02:53:19;-3.10;99.90
3954;DHT22;1991;48.682;9.030;2023-02-28T02:55:50;-3.10;99.90
3954;DHT22;1991;48.682;9.030;2023-02-28T02:58:22;-3.00;99.90
3954;DHT22;1991;48.682;9.030;2023-02-28T03:00:53;-3.00;99.90
3954;DHT22;1991;48.682;9.030;2023-02-28T03:03:19;-2.90;99.90
3954;DHT22;1991;48.682;9.030;2023-02-28T03:05:59;-2.80;99.90
3954;DHT22;1991;48.682;9.030;2023-02-28T03:08:25;-2.80;99.90
3954;DHT22;1991;48.682;9.030;2023-02-28T03:10:58;-2.80;99.90
3954;DHT22;1991;48.682;9.030;2023-02-28T03:13:37;-2.70;99.90
3954;DHT22;1991;48.682;9.030;2023-02-28T03:19:33;-2.60;99.90
3954;DHT22;1991;48.682;9.030;2023-02-28T03:24:52;-2.60;99.90
3954;DHT22;1991;48.682;9.030;2023-02-28T03:30:05;-2.70;99.90
3954;DHT22;1991;48.682;9.030;2023-02-28T03:35:17;-2.70;99.90
3954;DHT22;1991;48.682;9.030;2023-02-28T03:37:56;-2.70;99.90
3954;DHT22;1991;48.682;9.030;2023-02-28T03:40:28;-2.60;99.90
3954;DHT22;1991;48.682;9.030;2023-02-28T03:43:00;-2.60;99.90
3954;DHT22;1991;48.682;9.030;2023-02-28T03:45:33;-2.50;99.90
3954;DHT22;1991;48.682;9.030;2023-02-28T03:48:13;-2.40;99.90
3954;DHT22;1991;48.682;9.030;2023-02-28T03:50:45;-2.40;99.90
3954;DHT22;1991;48.682;9.030;2023-02-28T03:58:55;-2.20;99.90
3954;DHT22;1991;48.682;9.030;2023-02-28T04:01:43;-2.20;99.90
3954;DHT22;1991;48.682;9.030;2023-02-28T04:04:10;-2.20;99.90
3954;DHT22;1991;48.682;9.030;2023-02-28T04:06:37;-2.20;99.90
3954;DHT22;1991;48.682;9.030;2023-02-28T04:09:04;-2.10;99.90
3954;DHT22;1991;48.682;9.030;2023-02-28T04:11:51;-2.10;99.90
3954;DHT22;1991;48.682;9.030;2023-02-28T04:14:17;-2.00;99.90
3954;DHT22;1991;48.682;9.030;2023-02-28T04:16:44;-2.00;99.90
3954;DHT22;1991;48.682;9.030;2023-02-28T04:19:11;-2.00;99.90
3954;DHT22;1991;48.682;9.030;2023-02-28T04:21:42;-2.00;99.90
3954;DHT22;1991;48.682;9.030;2023-02-28T04:24:19;-2.00;99.90
3954;DHT22;1991;48.682;9.030;2023-02-28T04:26:47;-2.00;99.90
3954;DHT22;1991;48.682;9.030;2023-02-28T04:29:18;-2.00;99.90
3954;DHT22;1991;48.682;9.030;2023-02-28T04:31:44;-2.00;99.90
3954;DHT22;1991;48.682;9.030;2023-02-28T04:34:09;-2.00;99.90
3954;DHT22;1991;48.682;9.030;2023-02-28T04:36:35;-1.90;99.90
3954;DHT22;1991;48.682;9.030;2023-02-28T04:39:01;-1.90;99.90
3954;DHT22;1991;48.682;9.030;2023-02-28T04:41:27;-1.90;99.90
3954;DHT22;1991;48.682;9.030;2023-02-28T04:43:52;-1.90;99.90
3954;DHT22;1991;48.682;9.030;2023-02-28T04:46:18;-1.90;99.90
3954;DHT22;1991;48.682;9.030;2023-02-28T04:48:44;-1.80;99.90
3954;DHT22;1991;48.682;9.030;2023-02-28T04:51:13;-1.80;99.90
3954;DHT22;1991;48.682;9.030;2023-02-28T04:53:40;-1.80;99.90
3954;DHT22;1991;48.682;9.030;2023-02-28T04:56:07;-1.80;99.90
3954;DHT22;1991;48.682;9.030;2023-02-28T04:58:34;-1.80;99.90
3954;DHT22;1991;48.682;9.030;2023-02-28T05:03:45;-1.80;99.90
3954;DHT22;1991;48.682;9.030;2023-02-28T05:06:12;-1.90;99.90
3954;DHT22;1991;48.682;9.030;2023-02-28T05:08:38;-1.80;99.90
3954;DHT22;1991;48.682;9.030;2023-02-28T05:11:07;-1.80;99.90
3954;DHT22;1991;48.682;9.030;2023-02-28T05:13:36;-1.80;99.90
3954;DHT22;1991;48.682;9.030;2023-02-28T05:16:01;-1.80;99.90
3954;DHT22;1991;48.682;9.030;2023-02-28T05:18:28;-1.80;99.90
3954;DHT22;1991;48.682;9.030;2023-02-28T05:20:54;-1.80;99.90
3954;DHT22;1991;48.682;9.030;2023-02-28T05:23:20;-1.80;99.90
3954;DHT22;1991;48.682;9.030;2023-02-28T05:25:47;-1.80;99.90
3954;DHT22;1991;48.682;9.030;2023-02-28T05:28:13;-1.80;99.90
3954;DHT22;1991;48.682;9.030;2023-02-28T05:30:39;-1.80;99.90
3954;DHT22;1991;48.682;9.030;2023-02-28T05:33:05;-1.60;99.90
3954;DHT22;1991;48.682;9.030;2023-02-28T05:35:30;-1.70;99.90
3954;DHT22;1991;48.682;9.030;2023-02-28T05:37:56;-1.70;99.90
3954;DHT22;1991;48.682;9.030;2023-02-28T05:40:22;-1.70;99.90
3954;DHT22;1991;48.682;9.030;2023-02-28T05:42:48;-1.70;99.90
3954;DHT22;1991;48.682;9.030;2023-02-28T05:45:15;-1.70;99.90
3954;DHT22;1991;48.682;9.030;2023-02-28T05:47:40;-1.60;99.90
3954;DHT22;1991;48.682;9.030;2023-02-28T05:50:06;-1.70;99.90
3954;DHT22;1991;48.682;9.030;2023-02-28T05:52:32;-1.70;99.90
3954;DHT22;1991;48.682;9.030;2023-02-28T05:54:58;-1.70;99.90
3954;DHT22;1991;48.682;9.030;2023-02-28T05:57:24;-1.70;99.90
3954;DHT22;1991;48.682;9.030;2023-02-28T05:59:50;-1.70;99.90
3954;DHT22;1991;48.682;9.030;2023-02-28T06:02:16;-1.70;99.90
3954;DHT22;1991;48.682;9.030;2023-02-28T06:04:43;-1.70;99.90
3954;DHT22;1991;48.682;9.030;2023-02-28T06:07:09;-1.70;99.90
3954;DHT22;1991;48.682;9.030;2023-02-28T06:09:35;-1.70;99.90
3954;DHT22;1991;48.682;9.030;2023-02-28T06:12:03;-1.70;99.90
3954;DHT22;1991;48.682;9.030;2023-02-28T06:14:31;-1.60;99.90
3954;DHT22;1991;48.682;9.030;2023-02-28T06:16:58;-1.60;99.90
3954;DHT22;1991;48.682;9.030;2023-02-28T06:19:24;-1.60;99.90
3954;DHT22;1991;48.682;9.030;2023-02-28T06:21:54;-1.60;99.90
3954;DHT22;1991;48.682;9.030;2023-02-28T06:24:21;-1.60;99.90
3954;DHT22;1991;48.682;9.030;2023-02-28T06:26:47;-1.60;99.90
3954;DHT22;1991;48.682;9.030;2023-02-28T06:29:13;-1.60;99.90
3954;DHT22;1991;48.682;9.030;2023-02-28T06:31:42;-1.60;99.90
3954;DHT22;1991;48.682;9.030;2023-02-28T06:34:09;-1.50;99.90
3954;DHT22;1991;48.682;9.030;2023-02-28T06:36:37;-1.60;99.90
3954;DHT22;1991;48.682;9.030;2023-02-28T06:39:03;-1.50;99.90
3954;DHT22;1991;48.682;9.030;2023-02-28T06:41:28;-1.50;99.90
3954;DHT22;1991;48.682;9.030;2023-02-28T06:43:54;-1.40;99.90
3954;DHT22;1991;48.682;9.030;2023-02-28T06:46:20;-1.50;99.90
3954;DHT22;1991;48.682;9.030;2023-02-28T06:48:46;-1.40;99.90
3954;DHT22;1991;48.682;9.030;2023-02-28T06:51:18;-1.40;99.90
3954;DHT22;1991;48.682;9.030;2023-02-28T06:53:45;-1.40;99.90
3954;DHT22;1991;48.682;9.030;2023-02-28T06:56:13;-1.40;99.90
3954;DHT22;1991;48.682;9.030;2023-02-28T06:58:39;-1.40;99.90
3954;DHT22;1991;48.682;9.030;2023-02-28T07:01:05;-1.40;99.90
3954;DHT22;1991;48.682;9.030;2023-02-28T07:03:31;-1.30;99.90
3954;DHT22;1991;48.682;9.030;2023-02-28T07:05:57;-1.30;99.90
3954;DHT22;1991;48.682;9.030;2023-02-28T07:08:23;-1.30;99.90
3954;DHT22;1991;48.682;9.030;2023-02-28T07:10:55;-1.30;99.90
3954;DHT22;1991;48.682;9.030;2023-02-28T07:13:21;-1.30;99.90
3954;DHT22;1991;48.682;9.030;2023-02-28T07:15:59;-1.30;99.90
3954;DHT22;1991;48.682;9.030;2023-02-28T07:18:25;-1.20;99.90
3954;DHT22;1991;48.682;9.030;2023-02-28T07:20:51;-1.10;99.90
3954;DHT22;1991;48.682;9.030;2023-02-28T07:23:17;-1.00;99.90
3954;DHT22;1991;48.682;9.030;2023-02-28T07:25:43;-1.00;99.90
3954;DHT22;1991;48.682;9.030;2023-02-28T07:28:09;-0.90;99.90
3954;DHT22;1991;48.682;9.030;2023-02-28T07:30:34;-0.90;99.90
3954;DHT22;1991;48.682;9.030;2023-02-28T07:33:00;-0.80;99.90
3954;DHT22;1991;48.682;9.030;2023-02-28T07:35:25;-0.80;99.90
3954;DHT22;1991;48.682;9.030;2023-02-28T07:37:51;-0.80;99.90
3954;DHT22;1991;48.682;9.030;2023-02-28T07:40:17;-0.70;99.90
3954;DHT22;1991;48.682;9.030;2023-02-28T07:42:43;-0.70;99.90
3954;DHT22;1991;48.682;9.030;2023-02-28T07:45:10;-0.60;99.90
3954;DHT22;1991;48.682;9.030;2023-02-28T07:47:37;-0.60;99.90
3954;DHT22;1991;48.682;9.030;2023-02-28T07:50:03;-0.50;99.90
3954;DHT22;1991;48.682;9.030;2023-02-28T07:52:29;-0.40;99.90
3954;DHT22;1991;48.682;9.030;2023-02-28T07:54:54;-0.40;99.90
3954;DHT22;1991;48.682;9.030;2023-02-28T07:57:20;-0.30;99.90
3954;DHT22;1991;48.682;9.030;2023-02-28T07:59:46;-0.20;99.90
3954;DHT22;1991;48.682;9.030;2023-02-28T08:02:15;-0.10;99.90
3954;DHT22;1991;48.682;9.030;2023-02-28T08:04:42;-0.10;99.90
3954;DHT22;1991;48.682;9.030;2023-02-28T08:07:07;0.00;99.10
3954;DHT22;1991;48.682;9.030;2023-02-28T08:09:33;-0.10;98.90
3954;DHT22;1991;48.682;9.030;2023-02-28T08:11:59;0.00;98.60
3954;DHT22;1991;48.682;9.030;2023-02-28T08:14:25;-0.10;98.00
3954;DHT22;1991;48.682;9.030;2023-02-28T08:16:51;0.00;97.90
3954;DHT22;1991;48.682;9.030;2023-02-28T08:19:16;0.00;97.90
3954;DHT22;1991;48.682;9.030;2023-02-28T08:21:42;0.00;97.80
3954;DHT22;1991;48.682;9.030;2023-02-28T08:24:08;0.10;96.90
3954;DHT22;1991;48.682;9.030;2023-02-28T08:26:33;0.10;96.90
3954;DHT22;1991;48.682;9.030;2023-02-28T08:28:59;0.20;96.50
3954;DHT22;1991;48.682;9.030;2023-02-28T08:31:24;0.10;96.10
3954;DHT22;1991;48.682;9.030;2023-02-28T08:33:50;0.10;96.50
3954;DHT22;1991;48.682;9.030;2023-02-28T08:36:17;0.10;96.10
3954;DHT22;1991;48.682;9.030;2023-02-28T08:38:43;0.20;96.00
3954;DHT22;1991;48.682;9.030;2023-02-28T08:41:10;0.30;95.70
3954;DHT22;1991;48.682;9.030;2023-02-28T08:43:37;0.30;95.30
3954;DHT22;1991;48.682;9.030;2023-02-28T08:46:03;0.30;95.00
3954;DHT22;1991;48.682;9.030;2023-02-28T08:48:31;0.30;95.10
3954;DHT22;1991;48.682;9.030;2023-02-28T08:51:03;0.40;95.10
3954;DHT22;1991;48.682;9.030;2023-02-28T08:53:29;0.50;94.70
3954;DHT22;1991;48.682;9.030;2023-02-28T08:56:00;0.50;94.60
3954;DHT22;1991;48.682;9.030;2023-02-28T08:58:26;0.60;94.10
3954;DHT22;1991;48.682;9.030;2023-02-28T09:00:52;0.60;94.30
3954;DHT22;1991;48.682;9.030;2023-02-28T09:03:18;0.60;93.90
3954;DHT22;1991;48.682;9.030;2023-02-28T09:05:55;0.70;94.00
3954;DHT22;1991;48.682;9.030;2023-02-28T09:08:20;0.70;93.30
3954;DHT22;1991;48.682;9.030;2023-02-28T09:10:46;0.80;93.50
3954;DHT22;1991;48.682;9.030;2023-02-28T09:13:12;0.90;93.10
3954;DHT22;1991;48.682;9.030;2023-02-28T09:15:38;1.00;92.30
3954;DHT22;1991;48.682;9.030;2023-02-28T09:18:04;1.00;92.30
3954;DHT22;1991;48.682;9.030;2023-02-28T09:20:30;1.00;92.20
3954;DHT22;1991;48.682;9.030;2023-02-28T09:22:55;1.00;92.40
3954;DHT22;1991;48.682;9.030;2023-02-28T09:25:21;1.10;92.10
3954;DHT22;1991;48.682;9.030;2023-02-28T09:27:46;1.10;91.60
3954;DHT22;1991;48.682;9.030;2023-02-28T09:30:13;1.30;91.40
3954;DHT22;1991;48.682;9.030;2023-02-28T09:32:38;1.30;91.20
3954;DHT22;1991;48.682;9.030;2023-02-28T09:35:04;1.30;91.10
3954;DHT22;1991;48.682;9.030;2023-02-28T09:37:30;1.40;90.60
3954;DHT22;1991;48.682;9.030;2023-02-28T09:39:56;1.40;90.50
3954;DHT22;1991;48.682;9.030;2023-02-28T09:42:27;1.50;90.30
3954;DHT22;1991;48.682;9.030;2023-02-28T09:44:55;1.60;89.70
3954;DHT22;1991;48.682;9.030;2023-02-28T09:47:44;1.70;89.20
3954;DHT22;1991;48.682;9.030;2023-02-28T09:50:28;1.70;88.60
3954;DHT22;1991;48.682;9.030;2023-02-28T09:52:55;1.70;88.80
3954;DHT22;1991;48.682;9.030;2023-02-28T09:55:43;1.80;90.10
3954;DHT22;1991;48.682;9.030;2023-02-28T09:58:32;1.80;87.10
3954;DHT22;1991;48.682;9.030;2023-02-28T10:01:27;1.90;87.60
3954;DHT22;1991;48.682;9.030;2023-02-28T10:06:48;1.80;86.00
3954;DHT22;1991;48.682;9.030;2023-02-28T10:09:22;2.00;85.40
3954;DHT22;1991;48.682;9.030;2023-02-28T10:11:55;2.20;85.00
3954;DHT22;1991;48.682;9.030;2023-02-28T10:14:23;2.10;84.60
3954;DHT22;1991;48.682;9.030;2023-02-28T10:17:21;2.20;84.40
3954;DHT22;1991;48.682;9.030;2023-02-28T10:20:00;2.20;83.80
3954;DHT22;1991;48.682;9.030;2023-02-28T10:22:44;2.30;83.30
3954;DHT22;1991;48.682;9.030;2023-02-28T10:25:24;2.40;83.00
3954;DHT22;1991;48.682;9.030;2023-02-28T10:27:53;2.60;81.60
3954;DHT22;1991;48.682;9.030;2023-02-28T10:30:19;2.80;79.60
3954;DHT22;1991;48.682;9.030;2023-02-28T10:32:50;3.00;78.70
3954;DHT22;1991;48.682;9.030;2023-02-28T10:35:21;3.20;77.90
3954;DHT22;1991;48.682;9.030;2023-02-28T10:37:55;3.70;76.70
3954;DHT22;1991;48.682;9.030;2023-02-28T10:43:04;4.00;72.90
3954;DHT22;1991;48.682;9.030;2023-02-28T10:45:32;4.50;71.50
3954;DHT22;1991;48.682;9.030;2023-02-28T10:51:04;5.90;67.00
3954;DHT22;1991;48.682;9.030;2023-02-28T10:53:56;6.90;63.10
3954;DHT22;1991;48.682;9.030;2023-02-28T10:56:23;6.70;59.70
3954;DHT22;1991;48.682;9.030;2023-02-28T10:59:03;6.70;59.20
3954;DHT22;1991;48.682;9.030;2023-02-28T11:03:57;6.60;58.10
3954;DHT22;1991;48.682;9.030;2023-02-28T11:06:26;6.90;58.60
3954;DHT22;1991;48.682;9.030;2023-02-28T11:09:00;7.20;57.50
3954;DHT22;1991;48.682;9.030;2023-02-28T11:11:28;7.30;56.10
3954;DHT22;1991;48.682;9.030;2023-02-28T11:14:03;7.30;56.00
3954;DHT22;1991;48.682;9.030;2023-02-28T11:16:37;8.10;54.90
3954;DHT22;1991;48.682;9.030;2023-02-28T11:19:04;7.90;53.10
3954;DHT22;1991;48.682;9.030;2023-02-28T11:21:33;7.50;53.70
3954;DHT22;1991;48.682;9.030;2023-02-28T11:24:15;7.10;54.70
3954;DHT22;1991;48.682;9.030;2023-02-28T11:26:46;6.90;54.80
3954;DHT22;1991;48.682;9.030;2023-02-28T11:29:23;7.00;54.90
3954;DHT22;1991;48.682;9.030;2023-02-28T11:32:06;8.30;55.00
3954;DHT22;1991;48.682;9.030;2023-02-28T11:34:36;13.20;48.50
3954;DHT22;1991;48.682;9.030;2023-02-28T11:37:05;18.50;37.90
3954;DHT22;1991;48.682;9.030;2023-02-28T11:39:32;21.90;30.50
3954;DHT22;1991;48.682;9.030;2023-02-28T11:42:40;25.80;27.30
3954;DHT22;1991;48.682;9.030;2023-02-28T11:48:04;29.70;24.40
3954;DHT22;1991;48.682;9.030;2023-02-28T11:53:22;32.90;22.30
3954;DHT22;1991;48.682;9.030;2023-02-28T11:56:03;33.30;22.50
3954;DHT22;1991;48.682;9.030;2023-02-28T11:58:48;32.10;22.40
3954;DHT22;1991;48.682;9.030;2023-02-28T12:09:17;32.80;23.00
3954;DHT22;1991;48.682;9.030;2023-02-28T12:20:13;30.00;22.10
3954;DHT22;1991;48.682;9.030;2023-02-28T12:25:39;22.20;25.70
3954;DHT22;1991;48.682;9.030;2023-02-28T12:28:11;19.80;26.90
3954;DHT22;1991;48.682;9.030;2023-02-28T12:31:14;25.70;25.80
3954;DHT22;1991;48.682;9.030;2023-02-28T12:33:45;28.70;24.00
3954;DHT22;1991;48.682;9.030;2023-02-28T12:36:15;27.10;22.90
3954;DHT22;1991;48.682;9.030;2023-02-28T12:38:59;29.20;23.60
3954;DHT22;1991;48.682;9.030;2023-02-28T12:44:02;26.00;23.80
3954;DHT22;1991;48.682;9.030;2023-02-28T12:46:37;25.90;23.70
3954;DHT22;1991;48.682;9.030;2023-02-28T12:49:12;24.20;24.10
3954;DHT22;1991;48.682;9.030;2023-02-28T12:51:40;26.10;23.70
3954;DHT22;1991;48.682;9.030;2023-02-28T12:57:31;25.70;23.90
3954;DHT22;1991;48.682;9.030;2023-02-28T12:59:59;28.60;24.20
3954;DHT22;1991;48.682;9.030;2023-02-28T13:02:37;31.10;23.20
3954;DHT22;1991;48.682;9.030;2023-02-28T13:05:18;31.10;22.30
3954;DHT22;1991;48.682;9.030;2023-02-28T13:07:55;31.10;21.90
3954;DHT22;1991;48.682;9.030;2023-02-28T13:10:24;28.30;21.80
3954;DHT22;1991;48.682;9.030;2023-02-28T13:12:52;29.90;22.90
3954;DHT22;1991;48.682;9.030;2023-02-28T13:15:25;31.50;22.30
3954;DHT22;1991;48.682;9.030;2023-02-28T13:18:03;31.90;22.00
3954;DHT22;1991;48.682;9.030;2023-02-28T13:20:36;33.00;21.70
3954;DHT22;1991;48.682;9.030;2023-02-28T13:23:02;32.80;21.60
3954;DHT22;1991;48.682;9.030;2023-02-28T13:28:07;34.80;21.60
3954;DHT22;1991;48.682;9.030;2023-02-28T13:33:40;34.00;20.40
3954;DHT22;1991;48.682;9.030;2023-02-28T13:38:52;32.10;21.70
3954;DHT22;1991;48.682;9.030;2023-02-28T13:44:00;32.70;21.40
3954;DHT22;1991;48.682;9.030;2023-02-28T13:46:26;33.20;21.70
3954;DHT22;1991;48.682;9.030;2023-02-28T13:48:52;33.20;21.50
3954;DHT22;1991;48.682;9.030;2023-02-28T13:51:43;32.30;21.20
3954;DHT22;1991;48.682;9.030;2023-02-28T14:05:33;31.00;21.60
3954;DHT22;1991;48.682;9.030;2023-02-28T14:08:05;29.30;22.20
3954;DHT22;1991;48.682;9.030;2023-02-28T14:10:36;28.00;22.60
3954;DHT22;1991;48.682;9.030;2023-02-28T14:18:18;23.60;24.40
3954;DHT22;1991;48.682;9.030;2023-02-28T14:20:47;23.80;24.70
3954;DHT22;1991;48.682;9.030;2023-02-28T14:23:43;23.50;24.60
3954;DHT22;1991;48.682;9.030;2023-02-28T14:26:25;22.80;25.10
3954;DHT22;1991;48.682;9.030;2023-02-28T14:32:02;22.30;25.60
3954;DHT22;1991;48.682;9.030;2023-02-28T14:34:44;21.90;26.00
3954;DHT22;1991;48.682;9.030;2023-02-28T14:37:20;22.90;25.60
3954;DHT22;1991;48.682;9.030;2023-02-28T14:39:49;23.60;25.10
3954;DHT22;1991;48.682;9.030;2023-02-28T14:42:36;24.30;24.80
3954;DHT22;1991;48.682;9.030;2023-02-28T14:45:04;25.00;24.20
3954;DHT22;1991;48.682;9.030;2023-02-28T14:47:33;24.50;23.90
3954;DHT22;1991;48.682;9.030;2023-02-28T14:50:01;22.40;25.00
3954;DHT22;1991;48.682;9.030;2023-02-28T14:52:30;21.90;25.70
3954;DHT22;1991;48.682;9.030;2023-02-28T14:55:04;21.30;26.10
3954;DHT22;1991;48.682;9.030;2023-02-28T14:57:33;21.10;26.60
3954;DHT22;1991;48.682;9.030;2023-02-28T15:02:25;20.20;27.20
3954;DHT22;1991;48.682;9.030;2023-02-28T15:04:57;20.00;27.30
3954;DHT22;1991;48.682;9.030;2023-02-28T15:07:23;18.80;27.50
3954;DHT22;1991;48.682;9.030;2023-02-28T15:13:00;18.10;28.80
3954;DHT22;1991;48.682;9.030;2023-02-28T15:17:59;17.60;29.40
3954;DHT22;1991;48.682;9.030;2023-02-28T15:20:26;18.10;29.20
3954;DHT22;1991;48.682;9.030;2023-02-28T15:22:55;18.20;29.30
3954;DHT22;1991;48.682;9.030;2023-02-28T15:25:22;18.20;29.20
3954;DHT22;1991;48.682;9.030;2023-02-28T15:27:55;17.90;29.10
3954;DHT22;1991;48.682;9.030;2023-02-28T15:30:28;18.40;29.20
3954;DHT22;1991;48.682;9.030;2023-02-28T15:33:04;18.80;29.00
3954;DHT22;1991;48.682;9.030;2023-02-28T15:35:32;19.00;28.70
3954;DHT22;1991;48.682;9.030;2023-02-28T15:38:21;18.90;28.60
3954;DHT22;1991;48.682;9.030;2023-02-28T15:40:56;18.80;28.60
3954;DHT22;1991;48.682;9.030;2023-02-28T15:43:29;18.20;29.20
3954;DHT22;1991;48.682;9.030;2023-02-28T15:46:07;18.00;29.00
3954;DHT22;1991;48.682;9.030;2023-02-28T15:48:37;17.10;29.40
3954;DHT22;1991;48.682;9.030;2023-02-28T15:51:15;16.50;30.20
3954;DHT22;1991;48.682;9.030;2023-02-28T15:53:56;15.60;31.10
3954;DHT22;1991;48.682;9.030;2023-02-28T15:56:26;14.30;32.50
3954;DHT22;1991;48.682;9.030;2023-02-28T15:59:16;12.90;34.70
3954;DHT22;1991;48.682;9.030;2023-02-28T16:01:43;11.90;36.30
3954;DHT22;1991;48.682;9.030;2023-02-28T16:04:19;11.00;38.20
3954;DHT22;1991;48.682;9.030;2023-02-28T16:06:45;10.60;39.20
3954;DHT22;1991;48.682;9.030;2023-02-28T16:09:15;10.10;40.00
3954;DHT22;1991;48.682;9.030;2023-02-28T16:11:49;9.60;40.70
3954;DHT22;1991;48.682;9.030;2023-02-28T16:14:21;9.50;41.30
3954;DHT22;1991;48.682;9.030;2023-02-28T16:16:50;8.90;42.40
3954;DHT22;1991;48.682;9.030;2023-02-28T16:19:17;8.60;43.10
3954;DHT22;1991;48.682;9.030;2023-02-28T16:21:42;8.40;44.20
3954;DHT22;1991;48.682;9.030;2023-02-28T16:24:08;8.10;44.50
3954;DHT22;1991;48.682;9.030;2023-02-28T16:26:34;7.70;45.10
3954;DHT22;1991;48.682;9.030;2023-02-28T16:29:03;7.30;46.20
3954;DHT22;1991;48.682;9.030;2023-02-28T16:31:29;7.00;47.30
3954;DHT22;1991;48.682;9.030;2023-02-28T16:33:55;6.90;47.70
3954;DHT22;1991;48.682;9.030;2023-02-28T16:36:22;6.60;48.30
3954;DHT22;1991;48.682;9.030;2023-02-28T16:38:50;6.30;49.20
3954;DHT22;1991;48.682;9.030;2023-02-28T16:41:21;6.30;49.30
3954;DHT22;1991;48.682;9.030;2023-02-28T16:43:49;6.20;49.70
3954;DHT22;1991;48.682;9.030;2023-02-28T16:46:16;6.00;50.30
3954;DHT22;1991;48.682;9.030;2023-02-28T16:48:43;5.80;50.90
3954;DHT22;1991;48.682;9.030;2023-02-28T16:51:14;5.60;51.80
3954;DHT22;1991;48.682;9.030;2023-02-28T16:53:40;5.30;52.20
3954;DHT22;1991;48.682;9.030;2023-02-28T16:56:06;5.00;53.50
3954;DHT22;1991;48.682;9.030;2023-02-28T16:58:32;4.80;54.60
3954;DHT22;1991;48.682;9.030;2023-02-28T17:01:01;4.60;54.80
3954;DHT22;1991;48.682;9.030;2023-02-28T17:03:28;4.30;56.00
3954;DHT22;1991;48.682;9.030;2023-02-28T17:05:54;4.10;56.50
3954;DHT22;1991;48.682;9.030;2023-02-28T17:08:20;3.90;58.00
3954;DHT22;1991;48.682;9.030;2023-02-28T17:10:45;3.60;59.30
3954;DHT22;1991;48.682;9.030;2023-02-28T17:13:11;3.50;59.40
3954;DHT22;1991;48.682;9.030;2023-02-28T17:15:37;3.20;60.00
3954;DHT22;1991;48.682;9.030;2023-02-28T17:18:03;3.10;60.80
3954;DHT22;1991;48.682;9.030;2023-02-28T17:20:29;3.00;61.40
3954;DHT22;1991;48.682;9.030;2023-02-28T17:22:55;2.80;62.10
3954;DHT22;1991;48.682;9.030;2023-02-28T17:25:22;2.70;62.50
3954;DHT22;1991;48.682;9.030;2023-02-28T17:27:48;2.60;62.70
3954;DHT22;1991;48.682;9.030;2023-02-28T17:30:25;2.50;63.50
3954;DHT22;1991;48.682;9.030;2023-02-28T17:32:55;2.40;64.20
3954;DHT22;1991;48.682;9.030;2023-02-28T17:35:22;2.30;64.30
3954;DHT22;1991;48.682;9.030;2023-02-28T17:37:48;2.20;65.20
3954;DHT22;1991;48.682;9.030;2023-02-28T17:40:16;2.10;65.90
3954;DHT22;1991;48.682;9.030;2023-02-28T17:42:42;2.00;66.30
3954;DHT22;1991;48.682;9.030;2023-02-28T17:45:09;2.00;66.80
3954;DHT22;1991;48.682;9.030;2023-02-28T17:47:34;1.90;67.10
3954;DHT22;1991;48.682;9.030;2023-02-28T17:50:00;1.90;67.50
3954;DHT22;1991;48.682;9.030;2023-02-28T17:52:26;1.80;67.70
3954;DHT22;1991;48.682;9.030;2023-02-28T17:54:52;1.70;68.60
3954;DHT22;1991;48.682;9.030;2023-02-28T17:57:18;1.60;69.20
3954;DHT22;1991;48.682;9.030;2023-02-28T17:59:45;1.60;69.20
3954;DHT22;1991;48.682;9.030;2023-02-28T18:02:13;1.70;69.20
3954;DHT22;1991;48.682;9.030;2023-02-28T18:04:38;1.70;69.30
3954;DHT22;1991;48.682;9.030;2023-02-28T18:07:06;1.60;69.80
3954;DHT22;1991;48.682;9.030;2023-02-28T18:09:31;1.50;70.20
3954;DHT22;1991;48.682;9.030;2023-02-28T18:11:57;1.50;70.70
3954;DHT22;1991;48.682;9.030;2023-02-28T18:14:24;1.40;71.00
3954;DHT22;1991;48.682;9.030;2023-02-28T18:16:51;1.40;71.40